Time;durP1;ratioP1;P1;durP2;ratioP2;P2;SDS_P1;SDS_P2;PMS_P1;PMS_P2;Temp;Humidity;BMP_temperature;BMP_pressure;BME280_temperature;BME280_humidity;BME280_pressure;Samples;Min_cycle;Max_cycle;Signal;HPM_P1;HPM_P2
2021/12/07 00:02:12;;;;;;;7.63;5.85;;;;;;;;;;5051008;28;20281;-80
2021/12/07 00:04:40;;;;;;;7.40;5.25;;;;;;;;;;5050658;28;20218;-82
2021/12/07 00:07:08;;;;;;;6.57;4.88;;;;;;;;;;5054167;28;20205;-81
2021/12/07 00:09:36;;;;;;;6.00;5.03;;;;;;;;;;5058878;28;20205;-82
2021/12/07 00:12:07;;;;;;;8.07;4.40;;;;;;;;;;5070812;28;20222;-80
2021/12/07 00:14:39;;;;;;;4.90;4.40;;;;;;;;;;5048739;28;20222;-80
2021/12/07 00:17:06;;;;;;;6.82;4.50;;;;;;;;;;5050472;28;20191;-79
2021/12/07 00:19:36;;;;;;;9.27;5.10;;;;;;;;;;5048716;28;20198;-80
2021/12/07 00:22:04;;;;;;;8.10;5.30;;;;;;;;;;5052532;28;20201;-81
2021/12/07 00:24:34;;;;;;;9.05;4.93;;;;;;;;;;5054549;28;20198;-82
2021/12/07 00:27:01;;;;;;;6.03;3.80;;;;;;;;;;5050216;28;20213;-81
2021/12/07 00:29:30;;;;;;;9.57;5.65;;;;;;;;;;5050387;28;20195;-80
2021/12/07 00:32:16;;;;;;;8.07;4.20;;;;;;;;;;5048134;28;20596;-82
2021/12/07 00:34:57;;;;;;;4.78;3.65;;;;;;;;;;5049707;28;20222;-81
2021/12/07 00:37:26;;;;;;;5.97;3.70;;;;;;;;;;5051193;28;20643;-83
2021/12/07 00:39:53;;;;;;;4.53;3.13;;;;;;;;;;5051914;28;20283;-79
2021/12/07 00:42:21;;;;;;;7.10;4.25;;;;;;;;;;5052962;28;20644;-81
2021/12/07 00:44:48;;;;;;;6.43;3.47;;;;;;;;;;5056031;28;20222;-79
2021/12/07 00:47:17;;;;;;;4.75;3.20;;;;;;;;;;5055009;28;20218;-79
2021/12/07 00:49:44;;;;;;;4.25;3.63;;;;;;;;;;5049942;28;20195;-80
2021/12/07 00:52:12;;;;;;;3.90;2.72;;;;;;;;;;5049136;28;20683;-81
2021/12/07 00:54:40;;;;;;;3.55;3.03;;;;;;;;;;5049583;28;20830;-81
2021/12/07 00:57:09;;;;;;;5.88;4.40;;;;;;;;;;5047029;28;20552;-79
2021/12/07 00:59:39;;;;;;;8.60;4.45;;;;;;;;;;5050799;28;20622;-81
2021/12/07 01:02:08;;;;;;;6.13;4.53;;;;;;;;;;5052877;28;20195;-81
2021/12/07 01:04:36;;;;;;;6.15;3.80;;;;;;;;;;5053432;28;20203;-79
2021/12/07 01:07:06;;;;;;;6.47;4.75;;;;;;;;;;5055895;28;20558;-78
2021/12/07 01:24:38;;;;;;;8.48;4.47;;;;;;;;;;5055354;28;20194;-81
2021/12/07 01:25:55;;;;;;;8.35;5.70;;;;;;;;;;5052902;28;20428;-80
2021/12/07 01:28:28;;;;;;;12.45;6.70;;;;;;;;;;5060486;28;20659;-80
2021/12/07 01:31:00;;;;;;;10.40;6.55;;;;;;;;;;5048063;28;20191;-81
2021/12/07 01:33:45;;;;;;;11.25;7.65;;;;;;;;;;5048656;28;20195;-81
2021/12/07 01:36:40;;;;;;;10.18;7.00;;;;;;;;;;5048509;28;20219;-81
2021/12/07 01:44:44;;;;;;;15.30;11.63;;;;;;;;;;5048265;28;20564;-80
2021/12/07 01:47:30;;;;;;;14.75;11.23;;;;;;;;;;5048810;28;20229;-82
2021/12/07 01:50:18;;;;;;;18.30;11.23;;;;;;;;;;5048775;28;20731;-81
2021/12/07 01:53:07;;;;;;;21.58;12.18;;;;;;;;;;5046943;28;20636;-80
2021/12/07 02:00:58;;;;;;;17.10;9.85;;;;;;;;;;5050194;28;20224;-80
2021/12/07 02:03:26;;;;;;;21.02;9.90;;;;;;;;;;5047241;28;20536;-81
2021/12/07 02:05:54;;;;;;;14.10;9.27;;;;;;;;;;5048863;28;20568;-80
2021/12/07 02:08:22;;;;;;;15.88;8.82;;;;;;;;;;5046664;28;20205;-80
2021/12/07 02:10:52;;;;;;;16.90;9.88;;;;;;;;;;5047324;28;20200;-83
2021/12/07 02:14:01;;;;;;;13.75;8.20;;;;;;;;;;5054224;28;20290;-79
2021/12/07 02:16:07;;;;;;;16.15;8.07;;;;;;;;;;5046207;28;20237;-82
2021/12/07 02:18:35;;;;;;;14.93;9.40;;;;;;;;;;5041297;28;20199;-79
2021/12/07 02:21:14;;;;;;;14.20;6.68;;;;;;;;;;5047139;28;20195;-78
2021/12/07 02:23:42;;;;;;;12.77;7.22;;;;;;;;;;5045407;28;20659;-82
2021/12/07 02:26:10;;;;;;;15.60;7.00;;;;;;;;;;5048968;28;20229;-79
2021/12/07 02:28:39;;;;;;;13.40;6.15;;;;;;;;;;5053070;28;20191;-81
2021/12/07 02:31:07;;;;;;;13.65;6.65;;;;;;;;;;5055090;28;20190;-82
2021/12/07 02:33:34;;;;;;;15.18;7.03;;;;;;;;;;5045384;28;20201;-81
2021/12/07 02:36:01;;;;;;;15.30;7.05;;;;;;;;;;5047214;28;20222;-81
2021/12/07 02:38:30;;;;;;;17.70;7.32;;;;;;;;;;5052243;28;20659;-81
2021/12/07 02:40:57;;;;;;;13.80;6.85;;;;;;;;;;5053262;28;20194;-80
2021/12/07 02:43:24;;;;;;;23.08;8.23;;;;;;;;;;5051670;28;20194;-79
2021/12/07 02:45:52;;;;;;;21.90;8.70;;;;;;;;;;5054351;28;20707;-81
2021/12/07 02:48:21;;;;;;;14.93;8.32;;;;;;;;;;5053898;28;20195;-79
2021/12/07 02:50:49;;;;;;;30.25;10.15;;;;;;;;;;5056919;28;20666;-80
2021/12/07 02:53:18;;;;;;;21.48;8.25;;;;;;;;;;5055332;28;20194;-81
2021/12/07 02:55:49;;;;;;;25.95;8.98;;;;;;;;;;5066787;28;20261;-78
2021/12/07 02:58:16;;;;;;;22.52;8.93;;;;;;;;;;5072644;28;20197;-80
2021/12/07 03:00:49;;;;;;;12.45;8.07;;;;;;;;;;5065957;28;20545;-80
2021/12/07 03:03:17;;;;;;;19.70;8.20;;;;;;;;;;5053023;28;20256;-81
2021/12/07 03:05:52;;;;;;;23.83;9.10;;;;;;;;;;5042682;28;20218;-80
2021/12/07 03:27:14;;;;;;;26.77;9.80;;;;;;;;;;5050667;28;20210;-82
2021/12/07 03:29:41;;;;;;;16.77;7.68;;;;;;;;;;5053082;28;20226;-82
2021/12/07 03:32:08;;;;;;;15.77;6.90;;;;;;;;;;5054356;28;20191;-83
2021/12/07 03:34:35;;;;;;;16.30;7.25;;;;;;;;;;5051126;28;20219;-80
2021/12/07 03:37:04;;;;;;;11.20;5.75;;;;;;;;;;5051014;28;20195;-84
2021/12/07 03:39:32;;;;;;;19.48;6.32;;;;;;;;;;5050980;28;20205;-83
2021/12/07 03:41:59;;;;;;;22.52;6.07;;;;;;;;;;5048613;28;20607;-82
2021/12/07 03:44:27;;;;;;;13.63;6.80;;;;;;;;;;5057539;28;20190;-83
2021/12/07 03:46:55;;;;;;;20.85;6.38;;;;;;;;;;5057592;28;20640;-82
2021/12/07 03:49:22;;;;;;;20.65;6.75;;;;;;;;;;5050616;28;20217;-79
2021/12/07 03:51:49;;;;;;;15.60;6.40;;;;;;;;;;5052395;28;20289;-80
2021/12/07 03:54:17;;;;;;;20.88;6.35;;;;;;;;;;5051957;28;20569;-81
2021/12/07 03:56:44;;;;;;;22.77;6.18;;;;;;;;;;5049044;28;20650;-84
2021/12/07 03:59:11;;;;;;;13.55;6.15;;;;;;;;;;5054601;28;20225;-81
2021/12/07 04:01:40;;;;;;;20.88;6.35;;;;;;;;;;5058344;28;20205;-81
2021/12/07 04:04:07;;;;;;;18.48;7.28;;;;;;;;;;5031180;28;20195;-84
2021/12/07 04:06:34;;;;;;;25.55;7.47;;;;;;;;;;5040807;28;20215;-81
2021/12/07 04:09:01;;;;;;;17.60;5.65;;;;;;;;;;5047696;28;20209;-82
2021/12/07 04:11:29;;;;;;;18.23;6.85;;;;;;;;;;5050107;28;20191;-81
2021/12/07 04:13:57;;;;;;;12.88;7.20;;;;;;;;;;5052454;28;20666;-80
2021/12/07 04:16:24;;;;;;;21.23;7.60;;;;;;;;;;5055644;28;20242;-79
2021/12/07 04:18:52;;;;;;;13.25;7.53;;;;;;;;;;5056108;28;20198;-80
2021/12/07 04:21:19;;;;;;;15.98;8.48;;;;;;;;;;5051044;28;20199;-81
2021/12/07 04:23:47;;;;;;;15.40;8.00;;;;;;;;;;5050636;28;20666;-80
2021/12/07 04:26:15;;;;;;;20.95;7.57;;;;;;;;;;5052446;28;20218;-82
2021/12/07 04:28:44;;;;;;;22.77;7.43;;;;;;;;;;5049918;28;20197;-78
2021/12/07 04:31:11;;;;;;;21.42;7.63;;;;;;;;;;5051420;28;20207;-81
2021/12/07 04:33:39;;;;;;;16.42;7.47;;;;;;;;;;5057916;28;20190;-81
2021/12/07 04:36:11;;;;;;;23.13;7.72;;;;;;;;;;5053373;28;20229;-80
2021/12/07 04:38:38;;;;;;;20.63;7.32;;;;;;;;;;5046870;28;20191;-79
2021/12/07 04:41:06;;;;;;;18.60;8.73;;;;;;;;;;5049948;28;20191;-80
2021/12/07 04:43:35;;;;;;;15.57;7.43;;;;;;;;;;5048740;28;20199;-79
2021/12/07 04:46:10;;;;;;;11.32;6.72;;;;;;;;;;5045127;28;20300;-82
2021/12/07 04:49:10;;;;;;;17.50;7.45;;;;;;;;;;5031457;28;20195;-82
2021/12/07 04:59:47;;;;;;;21.92;9.20;;;;;;;;;;5049994;28;20268;-82
2021/12/07 05:02:17;;;;;;;26.50;7.70;;;;;;;;;;5051593;28;20205;-79
2021/12/07 05:04:44;;;;;;;21.85;8.20;;;;;;;;;;5049442;28;20207;-79
2021/12/07 05:07:20;;;;;;;16.27;7.55;;;;;;;;;;5050526;28;20226;-80
2021/12/07 05:12:40;;;;;;;14.35;8.25;;;;;;;;;;5032202;28;20273;-79
2021/12/07 05:15:17;;;;;;;26.50;8.35;;;;;;;;;;5036625;28;20217;-81
2021/12/07 05:34:29;;;;;;;14.88;7.22;;;;;;;;;;5047455;28;20915;-81
2021/12/07 05:39:35;;;;;;;17.38;8.15;;;;;;;;;;5058814;28;20253;-79
2021/12/07 05:42:03;;;;;;;20.73;7.47;;;;;;;;;;5049970;28;20217;-82
2021/12/07 05:44:30;;;;;;;20.33;7.85;;;;;;;;;;5049354;28;20266;-82
2021/12/07 05:46:57;;;;;;;16.92;7.68;;;;;;;;;;5048035;28;20198;-80
2021/12/07 05:49:24;;;;;;;15.93;6.88;;;;;;;;;;5055312;28;20191;-80
2021/12/07 05:51:52;;;;;;;19.55;6.45;;;;;;;;;;5057048;28;20195;-80
2021/12/07 05:54:19;;;;;;;15.65;7.15;;;;;;;;;;5071233;28;20214;-80
2021/12/07 05:56:47;;;;;;;16.42;6.85;;;;;;;;;;5056729;28;20325;-78
2021/12/07 05:59:15;;;;;;;21.23;6.40;;;;;;;;;;5050385;28;20198;-82
2021/12/07 06:01:42;;;;;;;16.73;8.82;;;;;;;;;;5048927;28;20225;-83
2021/12/07 06:04:09;;;;;;;16.73;6.97;;;;;;;;;;5037628;28;20652;-79
2021/12/07 06:06:37;;;;;;;17.00;6.63;;;;;;;;;;5056511;28;20215;-80
2021/12/07 06:09:04;;;;;;;20.48;6.80;;;;;;;;;;5053823;28;20187;-81
2021/12/07 06:11:32;;;;;;;16.30;6.20;;;;;;;;;;5047576;28;20206;-78
2021/12/07 06:14:00;;;;;;;12.52;5.43;;;;;;;;;;5050050;28;20198;-80
2021/12/07 06:16:30;;;;;;;19.02;5.80;;;;;;;;;;5048624;28;20225;-83
2021/12/07 06:18:58;;;;;;;13.23;6.57;;;;;;;;;;5049018;28;20290;-82
2021/12/07 06:21:25;;;;;;;15.50;6.85;;;;;;;;;;5034167;28;20207;-80
2021/12/07 06:23:53;;;;;;;15.15;7.07;;;;;;;;;;5054585;28;20728;-79
2021/12/07 06:26:20;;;;;;;11.75;6.30;;;;;;;;;;5052456;28;20210;-80
2021/12/07 06:28:47;;;;;;;24.40;7.45;;;;;;;;;;5051559;28;20213;-81
2021/12/07 06:31:16;;;;;;;16.02;6.55;;;;;;;;;;5048663;28;20198;-84
2021/12/07 06:33:43;;;;;;;17.83;6.22;;;;;;;;;;5047701;28;20206;-86
2021/12/07 06:36:12;;;;;;;13.48;6.35;;;;;;;;;;5047396;28;20237;-81
2021/12/07 06:38:39;;;;;;;14.95;6.55;;;;;;;;;;5055248;28;20628;-80
2021/12/07 06:41:06;;;;;;;14.38;6.18;;;;;;;;;;5055147;28;20190;-79
2021/12/07 06:43:34;;;;;;;10.98;4.53;;;;;;;;;;5046234;28;20221;-78
2021/12/07 06:46:04;;;;;;;9.68;5.07;;;;;;;;;;5047832;28;20219;-79
2021/12/07 06:48:32;;;;;;;9.80;5.85;;;;;;;;;;5050134;28;20194;-79
2021/12/07 06:51:00;;;;;;;16.63;5.88;;;;;;;;;;5049276;28;20541;-80
2021/12/07 06:53:27;;;;;;;15.65;6.45;;;;;;;;;;5048666;28;20660;-81
2021/12/07 06:55:55;;;;;;;23.60;8.23;;;;;;;;;;5051288;28;20237;-78
2021/12/07 06:58:22;;;;;;;15.77;7.28;;;;;;;;;;5051129;28;20525;-78
2021/12/07 07:00:49;;;;;;;14.48;6.60;;;;;;;;;;5049932;28;20205;-77
2021/12/07 07:03:16;;;;;;;13.27;5.80;;;;;;;;;;5054278;28;20281;-81
2021/12/07 07:05:45;;;;;;;27.90;8.30;;;;;;;;;;5062098;28;20551;-80
2021/12/07 07:08:12;;;;;;;13.95;7.72;;;;;;;;;;5028160;28;20786;-76
2021/12/07 07:10:40;;;;;;;15.27;6.25;;;;;;;;;;5027490;28;20231;-77
2021/12/07 07:13:07;;;;;;;17.25;7.15;;;;;;;;;;5038559;28;20277;-78
2021/12/07 07:15:35;;;;;;;15.57;5.40;;;;;;;;;;5038039;28;20258;-80
2021/12/07 07:18:17;;;;;;;11.13;5.60;;;;;;;;;;5044278;28;20277;-80
2021/12/07 07:20:45;;;;;;;18.42;4.60;;;;;;;;;;5014389;28;20195;-78
2021/12/07 07:23:13;;;;;;;16.40;5.03;;;;;;;;;;5011649;28;20641;-78
2021/12/07 07:25:40;;;;;;;10.35;3.75;;;;;;;;;;5025960;28;20222;-78
2021/12/07 07:28:07;;;;;;;18.75;5.18;;;;;;;;;;5027942;28;20547;-78
2021/12/07 07:30:35;;;;;;;14.45;4.35;;;;;;;;;;5024459;28;20199;-78
2021/12/07 07:33:02;;;;;;;15.70;6.18;;;;;;;;;;5029540;28;20195;-79
2021/12/07 07:35:30;;;;;;;12.02;4.90;;;;;;;;;;5025794;28;20223;-78
2021/12/07 07:38:00;;;;;;;13.70;5.00;;;;;;;;;;5014071;28;20250;-79
2021/12/07 07:40:28;;;;;;;10.38;4.47;;;;;;;;;;5003692;28;20222;-79
2021/12/07 07:42:55;;;;;;;16.50;4.85;;;;;;;;;;5008774;28;20192;-78
2021/12/07 07:45:22;;;;;;;13.23;6.70;;;;;;;;;;5008501;28;20578;-78
2021/12/07 07:47:50;;;;;;;18.13;5.80;;;;;;;;;;5018780;28;20196;-78
2021/12/07 07:50:17;;;;;;;19.65;5.28;;;;;;;;;;5028370;28;20245;-78
2021/12/07 07:52:44;;;;;;;15.77;5.60;;;;;;;;;;5033201;28;20201;-79
2021/12/07 07:55:13;;;;;;;10.20;4.32;;;;;;;;;;5044285;28;20222;-79
2021/12/07 07:57:40;;;;;;;14.23;4.90;;;;;;;;;;5050258;28;20233;-78
2021/12/07 08:00:15;;;;;;;12.75;5.88;;;;;;;;;;5057318;28;20536;-79
2021/12/07 08:02:42;;;;;;;14.65;5.30;;;;;;;;;;5052696;28;20191;-78
2021/12/07 08:05:10;;;;;;;13.93;5.72;;;;;;;;;;5039055;28;20211;-78
2021/12/07 08:07:37;;;;;;;13.55;4.85;;;;;;;;;;5032024;28;20560;-80
2021/12/07 08:10:05;;;;;;;12.80;5.32;;;;;;;;;;5050223;28;20187;-80
2021/12/07 08:12:34;;;;;;;12.45;4.90;;;;;;;;;;5046947;28;20242;-79
2021/12/07 08:15:01;;;;;;;13.30;4.40;;;;;;;;;;5052076;28;20218;-80
2021/12/07 08:17:28;;;;;;;11.10;4.80;;;;;;;;;;5051479;28;20226;-80
2021/12/07 08:19:55;;;;;;;14.20;4.72;;;;;;;;;;5052986;28;20190;-78
2021/12/07 08:22:23;;;;;;;11.57;4.90;;;;;;;;;;5053554;28;20190;-80
2021/12/07 08:24:50;;;;;;;8.75;4.85;;;;;;;;;;5050453;28;20803;-78
2021/12/07 08:27:18;;;;;;;17.50;3.92;;;;;;;;;;5032691;28;20187;-79
2021/12/07 08:29:49;;;;;;;13.60;4.35;;;;;;;;;;5037423;28;20194;-78
2021/12/07 08:32:17;;;;;;;9.57;4.18;;;;;;;;;;5049963;28;20577;-79
2021/12/07 08:34:44;;;;;;;12.90;4.50;;;;;;;;;;5047376;28;20218;-80
2021/12/07 08:37:12;;;;;;;12.45;4.05;;;;;;;;;;5052453;28;20219;-82
2021/12/07 08:39:39;;;;;;;13.50;4.47;;;;;;;;;;5055759;28;20194;-77
2021/12/07 08:42:07;;;;;;;14.70;4.55;;;;;;;;;;5049755;28;20199;-79
2021/12/07 08:44:35;;;;;;;8.27;4.47;;;;;;;;;;5044554;28;20191;-80
2021/12/07 08:47:03;;;;;;;6.30;3.80;;;;;;;;;;5048066;28;20302;-78
2021/12/07 08:49:31;;;;;;;15.48;4.80;;;;;;;;;;5050312;28;20573;-78
2021/12/07 08:51:58;;;;;;;13.70;3.83;;;;;;;;;;5051783;28;20198;-80
2021/12/07 08:54:35;;;;;;;9.48;4.18;;;;;;;;;;5051869;28;20195;-78
2021/12/07 08:59:45;;;;;;;19.75;4.80;;;;;;;;;;5045770;28;20831;-77
2021/12/07 09:02:15;;;;;;;7.35;3.95;;;;;;;;;;5049012;28;20277;-77
2021/12/07 09:04:43;;;;;;;10.88;4.53;;;;;;;;;;5047607;28;20218;-77
2021/12/07 09:07:10;;;;;;;14.02;4.50;;;;;;;;;;5047557;28;20573;-77
2021/12/07 09:09:38;;;;;;;7.95;4.75;;;;;;;;;;5049177;28;21534;-77
2021/12/07 09:12:06;;;;;;;9.82;3.80;;;;;;;;;;5052274;28;20285;-77
2021/12/07 09:14:34;;;;;;;13.25;4.35;;;;;;;;;;5048982;28;20202;-77
2021/12/07 09:17:01;;;;;;;6.57;3.55;;;;;;;;;;5045127;28;20222;-76
2021/12/07 09:19:30;;;;;;;5.78;2.90;;;;;;;;;;5046176;28;20199;-77
2021/12/07 09:21:57;;;;;;;16.20;4.05;;;;;;;;;;5047673;28;20195;-76
2021/12/07 09:24:24;;;;;;;8.80;4.47;;;;;;;;;;5044407;28;20198;-78
2021/12/07 09:26:52;;;;;;;10.10;3.85;;;;;;;;;;5056509;28;20194;-76
2021/12/07 09:29:19;;;;;;;14.00;5.03;;;;;;;;;;5050444;28;20203;-76
2021/12/07 09:31:47;;;;;;;10.38;4.32;;;;;;;;;;5048580;28;20195;-75
2021/12/07 09:34:14;;;;;;;9.23;4.32;;;;;;;;;;5049776;28;20206;-76
2021/12/07 09:36:43;;;;;;;14.05;4.78;;;;;;;;;;5046295;28;20222;-75
2021/12/07 09:39:12;;;;;;;8.48;4.28;;;;;;;;;;5044609;28;20239;-75
2021/12/07 09:41:40;;;;;;;7.10;4.03;;;;;;;;;;5036500;28;20663;-75
2021/12/07 09:44:08;;;;;;;11.27;4.35;;;;;;;;;;5052355;28;20201;-75
2021/12/07 09:46:36;;;;;;;13.35;4.60;;;;;;;;;;5050577;28;20225;-78
2021/12/07 09:49:05;;;;;;;11.15;6.00;;;;;;;;;;5053971;28;20206;-75
2021/12/07 09:51:33;;;;;;;13.00;5.55;;;;;;;;;;5052942;28;20197;-76
2021/12/07 09:54:02;;;;;;;8.90;4.72;;;;;;;;;;5047710;28;20246;-76
2021/12/07 09:56:29;;;;;;;8.60;4.20;;;;;;;;;;5043223;28;20226;-77
2021/12/07 09:58:58;;;;;;;16.42;4.65;;;;;;;;;;5044515;28;20209;-75
2021/12/07 10:01:26;;;;;;;13.98;4.97;;;;;;;;;;5037564;28;20269;-75
2021/12/07 10:03:54;;;;;;;9.27;4.00;;;;;;;;;;5034188;28;20218;-76
2021/12/07 10:06:21;;;;;;;11.80;5.13;;;;;;;;;;5048422;28;20699;-75
2021/12/07 10:08:50;;;;;;;8.32;3.50;;;;;;;;;;5046582;28;20632;-76
2021/12/07 10:11:19;;;;;;;17.98;5.05;;;;;;;;;;5052541;28;20202;-75
2021/12/07 10:13:48;;;;;;;11.18;4.40;;;;;;;;;;5053946;28;20190;-76
2021/12/07 10:16:16;;;;;;;9.07;3.90;;;;;;;;;;5048018;28;20413;-75
2021/12/07 10:18:44;;;;;;;14.10;4.82;;;;;;;;;;5040896;28;20195;-76
2021/12/07 10:21:14;;;;;;;14.88;5.28;;;;;;;;;;5047838;28;20580;-76
2021/12/07 10:23:42;;;;;;;19.65;5.60;;;;;;;;;;5045848;28;20195;-75
2021/12/07 10:26:12;;;;;;;18.13;6.00;;;;;;;;;;5038925;28;20228;-74
2021/12/07 10:28:42;;;;;;;22.60;7.28;;;;;;;;;;5055346;28;20275;-75
2021/12/07 10:31:19;;;;;;;18.58;5.50;;;;;;;;;;5057730;28;20255;-77
2021/12/07 10:33:47;;;;;;;14.07;5.75;;;;;;;;;;5066372;28;20200;-76
2021/12/07 10:36:16;;;;;;;14.88;5.88;;;;;;;;;;5047220;28;20210;-76
2021/12/07 10:38:47;;;;;;;19.58;6.47;;;;;;;;;;5041887;28;20194;-76
2021/12/07 10:41:21;;;;;;;15.45;6.50;;;;;;;;;;5034246;28;20195;-76
2021/12/07 10:43:53;;;;;;;17.38;5.88;;;;;;;;;;5053928;28;20194;-78
2021/12/07 10:46:35;;;;;;;13.13;6.57;;;;;;;;;;5053951;28;20214;-77
2021/12/07 10:49:13;;;;;;;11.05;5.40;;;;;;;;;;5048224;28;20675;-76
2021/12/07 10:51:41;;;;;;;18.75;5.72;;;;;;;;;;5045099;28;20205;-77
2021/12/07 10:54:09;;;;;;;15.52;4.82;;;;;;;;;;5042479;28;20210;-77
2021/12/07 10:56:37;;;;;;;9.32;5.10;;;;;;;;;;5031082;28;20227;-76
2021/12/07 10:59:06;;;;;;;8.80;4.00;;;;;;;;;;5053513;28;20202;-77
2021/12/07 11:01:34;;;;;;;9.93;3.88;;;;;;;;;;5058520;28;20202;-76
2021/12/07 11:04:17;;;;;;;7.03;4.43;;;;;;;;;;5052084;28;20213;-77
2021/12/07 11:06:59;;;;;;;8.57;4.93;;;;;;;;;;5048237;28;20210;-76
2021/12/07 11:09:26;;;;;;;13.88;4.75;;;;;;;;;;5042878;28;20203;-76
2021/12/07 11:12:07;;;;;;;10.18;4.10;;;;;;;;;;5043303;28;20213;-77
2021/12/07 11:14:41;;;;;;;9.40;4.45;;;;;;;;;;5052688;28;20240;-76
2021/12/07 11:17:08;;;;;;;8.50;4.32;;;;;;;;;;5054660;28;20219;-76
2021/12/07 11:19:36;;;;;;;6.75;3.60;;;;;;;;;;5052840;28;20199;-77
2021/12/07 11:22:03;;;;;;;10.13;3.75;;;;;;;;;;5050022;28;20281;-75
2021/12/07 11:24:39;;;;;;;12.65;4.32;;;;;;;;;;5050371;28;20191;-76
2021/12/07 11:29:57;;;;;;;7.03;4.95;;;;;;;;;;5050647;28;20202;-77
2021/12/07 11:32:25;;;;;;;14.50;4.20;;;;;;;;;;5053968;28;20195;-77
2021/12/07 11:34:52;;;;;;;7.25;3.35;;;;;;;;;;5052653;28;20218;-77
2021/12/07 11:37:22;;;;;;;6.43;3.75;;;;;;;;;;5055273;28;20221;-76
2021/12/07 11:39:52;;;;;;;7.70;4.28;;;;;;;;;;5057116;28;20610;-78
2021/12/07 11:42:21;;;;;;;6.18;3.53;;;;;;;;;;5055087;28;20203;-77
2021/12/07 11:44:50;;;;;;;8.43;3.72;;;;;;;;;;5052817;28;20739;-76
2021/12/07 11:47:18;;;;;;;7.07;3.10;;;;;;;;;;5048979;28;20205;-76
2021/12/07 11:49:45;;;;;;;5.90;3.63;;;;;;;;;;5052012;28;20199;-77
2021/12/07 11:52:12;;;;;;;6.78;3.38;;;;;;;;;;5051781;28;20206;-77
2021/12/07 11:54:40;;;;;;;8.13;3.40;;;;;;;;;;5053551;28;20311;-76
2021/12/07 11:57:10;;;;;;;10.15;3.60;;;;;;;;;;5052664;28;20241;-76
2021/12/07 11:59:37;;;;;;;4.70;3.38;;;;;;;;;;5050210;28;20652;-76
2021/12/07 12:02:06;;;;;;;10.02;3.85;;;;;;;;;;5055717;28;20199;-77
2021/12/07 12:04:33;;;;;;;4.15;3.08;;;;;;;;;;5061982;28;20197;-76
2021/12/07 12:07:01;;;;;;;5.10;3.63;;;;;;;;;;5064320;28;20288;-78
2021/12/07 12:09:29;;;;;;;5.90;2.78;;;;;;;;;;5046524;28;20568;-77
2021/12/07 12:12:01;;;;;;;7.82;3.42;;;;;;;;;;5049161;28;20195;-77
2021/12/07 12:14:38;;;;;;;5.40;4.20;;;;;;;;;;5051391;28;20214;-77
2021/12/07 12:17:09;;;;;;;6.35;3.03;;;;;;;;;;5057617;28;20201;-76
2021/12/07 12:19:42;;;;;;;6.75;3.65;;;;;;;;;;5055671;28;20210;-77
2021/12/07 12:22:12;;;;;;;4.97;3.08;;;;;;;;;;5044522;28;20218;-77
2021/12/07 12:24:44;;;;;;;6.30;2.60;;;;;;;;;;5041332;28;20218;-77
2021/12/07 12:27:12;;;;;;;7.90;2.70;;;;;;;;;;5049068;28;20190;-76
2021/12/07 12:29:41;;;;;;;9.70;2.78;;;;;;;;;;5051589;28;20199;-76
2021/12/07 12:32:10;;;;;;;12.20;3.63;;;;;;;;;;5041551;28;20193;-77
2021/12/07 12:34:38;;;;;;;4.45;2.60;;;;;;;;;;5057705;28;20194;-76
2021/12/07 12:37:08;;;;;;;6.75;3.20;;;;;;;;;;5061428;28;20198;-76
2021/12/07 12:39:50;;;;;;;8.43;2.95;;;;;;;;;;5061179;28;20201;-78
2021/12/07 12:42:18;;;;;;;5.85;2.58;;;;;;;;;;5049884;28;20201;-76
2021/12/07 12:44:45;;;;;;;3.88;2.35;;;;;;;;;;5050357;28;20233;-76
2021/12/07 12:47:14;;;;;;;6.93;2.90;;;;;;;;;;5052071;28;20216;-76
2021/12/07 12:49:42;;;;;;;7.60;2.65;;;;;;;;;;5057100;28;20191;-75
2021/12/07 12:52:10;;;;;;;7.10;2.60;;;;;;;;;;5055688;28;20742;-77
2021/12/07 12:54:42;;;;;;;3.65;2.70;;;;;;;;;;5049805;28;20215;-76
2021/12/07 12:57:11;;;;;;;9.38;2.70;;;;;;;;;;5046566;28;20237;-75
2021/12/07 12:59:39;;;;;;;3.47;2.03;;;;;;;;;;5045171;28;20202;-75
2021/12/07 13:02:06;;;;;;;9.73;3.33;;;;;;;;;;5043703;28;20197;-75
2021/12/07 13:04:35;;;;;;;6.60;2.92;;;;;;;;;;5056356;28;20198;-76
2021/12/07 13:07:23;;;;;;;9.82;3.08;;;;;;;;;;5054134;28;20209;-76
2021/12/07 13:09:54;;;;;;;7.25;2.95;;;;;;;;;;5045298;28;20208;-76
2021/12/07 13:12:22;;;;;;;6.82;2.80;;;;;;;;;;5046083;28;20453;-75
2021/12/07 13:14:54;;;;;;;6.35;2.50;;;;;;;;;;5035386;28;20572;-75
2021/12/07 13:17:24;;;;;;;5.40;2.92;;;;;;;;;;5047501;28;20198;-76
2021/12/07 13:20:06;;;;;;;3.50;2.53;;;;;;;;;;5051712;28;20201;-75
2021/12/07 13:22:36;;;;;;;6.50;2.65;;;;;;;;;;5050701;28;20213;-76
2021/12/07 13:25:06;;;;;;;10.85;3.30;;;;;;;;;;5053741;28;20225;-75
2021/12/07 13:27:34;;;;;;;13.07;2.90;;;;;;;;;;5055303;28;20193;-75
2021/12/07 13:30:01;;;;;;;10.57;3.08;;;;;;;;;;5042610;28;20262;-76
2021/12/07 13:32:28;;;;;;;5.65;2.47;;;;;;;;;;5036434;28;20200;-74
2021/12/07 13:35:01;;;;;;;8.57;3.60;;;;;;;;;;5034958;28;20222;-76
2021/12/07 13:37:43;;;;;;;11.02;3.10;;;;;;;;;;5031335;28;20199;-73
2021/12/07 13:40:19;;;;;;;6.07;2.70;;;;;;;;;;5039577;28;20226;-76
2021/12/07 13:42:48;;;;;;;5.15;3.03;;;;;;;;;;5048523;28;20202;-75
2021/12/07 13:45:19;;;;;;;9.25;4.38;;;;;;;;;;5050551;28;20214;-74
2021/12/07 13:47:47;;;;;;;7.43;3.90;;;;;;;;;;5044516;28;20226;-74
2021/12/07 13:50:15;;;;;;;4.68;2.30;;;;;;;;;;5055207;28;20666;-74
2021/12/07 13:52:44;;;;;;;10.45;2.90;;;;;;;;;;5058362;28;20853;-75
2021/12/07 13:55:13;;;;;;;6.47;2.72;;;;;;;;;;5050088;28;20315;-75
2021/12/07 13:57:43;;;;;;;10.82;3.60;;;;;;;;;;5046488;28;20234;-76
2021/12/07 14:00:12;;;;;;;6.18;2.85;;;;;;;;;;5048415;28;20205;-76
2021/12/07 14:02:40;;;;;;;2.85;2.50;;;;;;;;;;5045941;28;20198;-76
2021/12/07 14:05:10;;;;;;;5.75;2.80;;;;;;;;;;5052787;28;20720;-75
2021/12/07 14:07:37;;;;;;;5.57;3.10;;;;;;;;;;5057339;28;20618;-78
2021/12/07 14:10:06;;;;;;;5.88;2.42;;;;;;;;;;5048179;28;20558;-77
2021/12/07 14:12:33;;;;;;;4.07;2.50;;;;;;;;;;5048327;28;20563;-76
2021/12/07 14:15:08;;;;;;;6.45;2.47;;;;;;;;;;5046667;28;20214;-77
2021/12/07 14:17:39;;;;;;;5.45;2.45;;;;;;;;;;5039493;28;20205;-76
2021/12/07 14:20:07;;;;;;;12.75;2.65;;;;;;;;;;5054474;28;20767;-76
2021/12/07 14:22:34;;;;;;;2.83;2.05;;;;;;;;;;5054261;28;20191;-77
2021/12/07 14:25:01;;;;;;;10.13;2.50;;;;;;;;;;5047693;28;20219;-76
2021/12/07 14:27:29;;;;;;;2.80;2.05;;;;;;;;;;5048298;28;20190;-76
2021/12/07 14:29:56;;;;;;;7.95;2.42;;;;;;;;;;5046124;28;20191;-76
2021/12/07 14:32:25;;;;;;;5.10;2.20;;;;;;;;;;5048057;28;20190;-76
2021/12/07 14:34:52;;;;;;;6.03;2.60;;;;;;;;;;5054345;28;20222;-75
2021/12/07 14:37:19;;;;;;;4.15;1.98;;;;;;;;;;5061365;28;20196;-76
2021/12/07 14:39:47;;;;;;;5.22;2.15;;;;;;;;;;5063021;28;20309;-76
2021/12/07 14:42:15;;;;;;;6.07;2.85;;;;;;;;;;5062795;28;20652;-76
2021/12/07 14:44:44;;;;;;;6.60;3.17;;;;;;;;;;5050622;28;20697;-76
2021/12/07 14:47:11;;;;;;;4.93;3.00;;;;;;;;;;5048018;28;20664;-75
2021/12/07 14:49:42;;;;;;;6.22;3.10;;;;;;;;;;5033716;28;20267;-77
2021/12/07 14:52:10;;;;;;;5.82;3.15;;;;;;;;;;5057708;28;20197;-76
2021/12/07 14:54:38;;;;;;;9.65;2.92;;;;;;;;;;5060430;28;20629;-76
2021/12/07 14:57:05;;;;;;;5.90;2.60;;;;;;;;;;5055786;28;20218;-77
2021/12/07 14:59:36;;;;;;;5.47;2.60;;;;;;;;;;5047640;28;20226;-75
2021/12/07 15:02:03;;;;;;;5.97;2.58;;;;;;;;;;5033436;28;20200;-76
2021/12/07 15:04:30;;;;;;;2.65;2.30;;;;;;;;;;5034823;28;20195;-76
2021/12/07 15:07:00;;;;;;;13.85;3.22;;;;;;;;;;5048130;28;20198;-77
2021/12/07 15:09:27;;;;;;;7.30;3.00;;;;;;;;;;5055195;28;20195;-76
2021/12/07 15:11:55;;;;;;;5.57;2.78;;;;;;;;;;5060574;28;21051;-76
2021/12/07 15:14:24;;;;;;;5.63;2.55;;;;;;;;;;5072235;28;20221;-76
2021/12/07 15:16:52;;;;;;;10.00;3.10;;;;;;;;;;5070172;28;20605;-76
2021/12/07 15:19:20;;;;;;;6.88;2.58;;;;;;;;;;5070575;28;20721;-77
2021/12/07 15:21:47;;;;;;;8.75;3.10;;;;;;;;;;5056229;28;20338;-76
2021/12/07 15:24:17;;;;;;;7.07;2.55;;;;;;;;;;5049469;28;20212;-77
2021/12/07 15:26:44;;;;;;;6.22;2.20;;;;;;;;;;5060753;28;20638;-77
2021/12/07 15:29:12;;;;;;;9.10;3.30;;;;;;;;;;5059072;28;20194;-77
2021/12/07 15:31:42;;;;;;;6.55;2.30;;;;;;;;;;5050386;28;20693;-77
2021/12/07 15:34:10;;;;;;;3.40;2.22;;;;;;;;;;5051297;28;20669;-76
2021/12/07 15:36:40;;;;;;;3.13;2.03;;;;;;;;;;5053181;28;20219;-77
2021/12/07 15:39:09;;;;;;;4.22;3.00;;;;;;;;;;5052548;28;20276;-77
2021/12/07 15:41:38;;;;;;;4.97;2.20;;;;;;;;;;5057273;28;20194;-77
2021/12/07 15:44:06;;;;;;;6.55;2.85;;;;;;;;;;5057863;28;20194;-76
2021/12/07 15:46:34;;;;;;;4.55;2.20;;;;;;;;;;5070269;28;20696;-76
2021/12/07 15:49:01;;;;;;;8.27;2.95;;;;;;;;;;5060423;28;20202;-77
2021/12/07 15:51:28;;;;;;;4.28;2.55;;;;;;;;;;5051462;28;20195;-76
2021/12/07 15:53:56;;;;;;;7.20;3.70;;;;;;;;;;5052921;28;20195;-77
2021/12/07 15:56:25;;;;;;;9.48;3.00;;;;;;;;;;5041757;28;20696;-77
2021/12/07 15:58:54;;;;;;;6.97;2.53;;;;;;;;;;5033227;28;20333;-77
2021/12/07 16:01:21;;;;;;;6.32;2.50;;;;;;;;;;5044193;28;20198;-76
2021/12/07 16:03:49;;;;;;;4.57;2.58;;;;;;;;;;5056334;28;20567;-77
2021/12/07 16:06:17;;;;;;;8.35;2.70;;;;;;;;;;5056886;28;20300;-76
2021/12/07 16:08:45;;;;;;;6.72;2.65;;;;;;;;;;5051080;28;20199;-76